Time;durP1;ratioP1;P1;durP2;ratioP2;P2;SDS_P1;SDS_P2;PMS_P1;PMS_P2;Temp;Humidity;BMP_temperature;BMP_pressure;BME280_temperature;BME280_humidity;BME280_pressure;Samples;Min_cycle;Max_cycle;Signal;HPM_P1;HPM_P2
2022/10/14 00:02:03;;;;;;;18.05;13.15;;;12.40;99.90;;;;;;5014012;28;20046;-73
2022/10/14 00:04:29;;;;;;;22.20;14.23;;;12.50;99.90;;;;;;5013984;28;20038;-73
2022/10/14 00:06:56;;;;;;;20.77;13.48;;;12.40;99.90;;;;;;5013805;28;20042;-73
2022/10/14 00:09:22;;;;;;;20.13;13.52;;;12.40;99.90;;;;;;5013907;28;20046;-73
2022/10/14 00:11:48;;;;;;;22.10;14.63;;;12.50;99.90;;;;;;5013836;28;20046;-73
2022/10/14 00:14:17;;;;;;;20.30;13.35;;;12.50;99.90;;;;;;5013392;28;20053;-73
2022/10/14 00:16:45;;;;;;;20.70;13.93;;;12.40;99.90;;;;;;5013352;28;20091;-73
2022/10/14 00:19:11;;;;;;;22.40;13.70;;;12.40;99.90;;;;;;5013501;28;20045;-73
2022/10/14 00:21:38;;;;;;;19.63;13.05;;;12.40;99.90;;;;;;5013523;28;20405;-73
2022/10/14 00:24:05;;;;;;;21.48;14.68;;;12.40;99.90;;;;;;5013739;28;20052;-73
2022/10/14 00:26:34;;;;;;;22.08;15.13;;;12.40;99.90;;;;;;5013128;28;20569;-73
2022/10/14 00:29:01;;;;;;;23.73;14.25;;;12.40;99.90;;;;;;5013265;28;20496;-73
2022/10/14 00:31:27;;;;;;;23.02;13.75;;;12.40;99.90;;;;;;5013356;28;20437;-73
2022/10/14 00:33:53;;;;;;;23.80;14.32;;;12.40;99.90;;;;;;5027702;28;20477;-73
2022/10/14 00:36:22;;;;;;;20.90;14.05;;;12.40;99.90;;;;;;5014394;28;20044;-73
2022/10/14 00:38:48;;;;;;;24.65;14.95;;;12.30;99.90;;;;;;5032741;28;20080;-74
2022/10/14 00:41:18;;;;;;;24.08;14.32;;;12.30;99.90;;;;;;5032838;28;20486;-72
2022/10/14 00:44:00;;;;;;;21.70;13.98;;;12.30;99.90;;;;;;5032791;28;20064;-73
2022/10/14 00:46:35;;;;;;;22.58;14.27;;;12.30;99.90;;;;;;5032789;28;20140;-72
2022/10/14 00:49:07;;;;;;;23.25;15.02;;;12.30;99.90;;;;;;5032969;28;20080;-73
2022/10/14 00:51:35;;;;;;;25.17;14.70;;;12.30;99.90;;;;;;5015268;28;20405;-73
2022/10/14 00:54:00;;;;;;;25.70;14.23;;;12.30;99.90;;;;;;5032833;28;20095;-73
2022/10/14 00:56:28;;;;;;;21.83;13.65;;;12.30;99.90;;;;;;5032842;28;20045;-73
2022/10/14 00:58:54;;;;;;;24.35;15.20;;;12.20;99.90;;;;;;5014782;28;20377;-73
2022/10/14 01:01:20;;;;;;;22.25;13.77;;;12.20;99.90;;;;;;5032509;28;20049;-73
2022/10/14 01:03:46;;;;;;;23.75;13.98;;;12.20;99.90;;;;;;5032695;28;20038;-73
2022/10/14 01:06:38;;;;;;;22.02;13.68;;;12.20;99.90;;;;;;5032307;28;20401;-74
2022/10/14 01:09:38;;;;;;;24.50;14.32;;;12.20;99.90;;;;;;5028479;28;20092;-72
2022/10/14 01:12:39;;;;;;;20.33;12.98;;;12.10;99.90;;;;;;5012235;28;20615;-73
2022/10/14 01:15:29;;;;;;;21.52;13.30;;;12.10;99.90;;;;;;4997229;28;20328;-73
2022/10/14 01:18:06;;;;;;;22.13;13.45;;;12.10;99.90;;;;;;4992541;28;20085;-73
2022/10/14 01:20:51;;;;;;;21.08;12.82;;;12.10;99.90;;;;;;4992063;28;20144;-72
2022/10/14 01:23:36;;;;;;;24.00;14.07;;;12.00;99.90;;;;;;4992989;28;20112;-72
2022/10/14 01:26:39;;;;;;;19.58;12.10;;;12.00;99.90;;;;;;5015109;28;20049;-73
2022/10/14 01:29:39;;;;;;;21.08;12.32;;;11.90;99.90;;;;;;5014254;28;20045;-72
2022/10/14 01:32:22;;;;;;;20.65;12.68;;;11.90;99.90;;;;;;5014791;28;20378;-73
2022/10/14 01:35:08;;;;;;;20.38;11.93;;;11.80;99.90;;;;;;4992584;28;20514;-72
2022/10/14 01:37:37;;;;;;;17.30;11.80;;;11.70;99.90;;;;;;4992268;28;20435;-73
2022/10/14 01:40:10;;;;;;;16.75;10.80;;;11.60;99.90;;;;;;4992689;28;20128;-73
2022/10/14 01:42:39;;;;;;;17.58;10.63;;;11.60;99.90;;;;;;4992347;28;20054;-73
2022/10/14 01:45:12;;;;;;;16.42;10.15;;;11.50;99.90;;;;;;4992403;28;20129;-73
2022/10/14 01:47:40;;;;;;;15.48;10.63;;;11.40;99.90;;;;;;4992699;28;20090;-72
2022/10/14 01:50:13;;;;;;;15.15;9.73;;;11.40;99.90;;;;;;4992228;28;20038;-72
2022/10/14 01:52:46;;;;;;;15.43;9.98;;;11.40;99.90;;;;;;4985364;28;20050;-73
2022/10/14 01:55:16;;;;;;;17.20;9.82;;;11.40;99.90;;;;;;4991158;28;20073;-72
2022/10/14 01:57:44;;;;;;;15.00;9.60;;;11.40;99.90;;;;;;4992136;28;20042;-72
2022/10/14 02:00:10;;;;;;;19.27;10.18;;;11.40;99.90;;;;;;4992039;28;20038;-72
2022/10/14 02:02:37;;;;;;;28.70;11.07;;;11.40;99.90;;;;;;4991193;28;20126;-71
2022/10/14 02:05:09;;;;;;;20.92;10.65;;;11.40;99.90;;;;;;4992299;28;20038;-72
2022/10/14 02:07:40;;;;;;;23.10;11.13;;;11.40;99.90;;;;;;4992411;28;20046;-72
2022/10/14 02:10:20;;;;;;;30.67;10.75;;;11.40;99.90;;;;;;4991877;28;20540;-72
2022/10/14 02:12:54;;;;;;;35.53;11.52;;;11.40;99.90;;;;;;4991679;28;20637;-72
2022/10/14 02:15:37;;;;;;;33.22;11.27;;;11.40;99.90;;;;;;5007927;28;20081;-73
2022/10/14 02:18:30;;;;;;;44.28;11.20;;;11.40;99.90;;;;;;5011567;28;20465;-72
2022/10/14 02:21:16;;;;;;;38.17;10.95;;;11.40;99.90;;;;;;5012009;28;20088;-72
2022/10/14 02:23:48;;;;;;;35.00;10.45;;;11.30;99.90;;;;;;5011626;28;20128;-72
2022/10/14 02:26:16;;;;;;;41.67;10.00;;;11.30;99.90;;;;;;5011663;28;20117;-72
2022/10/14 02:28:43;;;;;;;36.25;9.52;;;11.20;99.90;;;;;;5011402;28;20104;-72
2022/10/14 02:31:13;;;;;;;30.38;10.73;;;11.20;99.90;;;;;;5011619;28;20504;-72
2022/10/14 02:33:42;;;;;;;29.35;9.77;;;11.10;99.90;;;;;;5023828;28;20369;-72
2022/10/14 02:36:11;;;;;;;34.72;10.80;;;11.20;99.90;;;;;;5031205;28;20489;-72
2022/10/14 02:38:38;;;;;;;43.92;10.98;;;11.10;99.90;;;;;;5031115;28;20045;-72
2022/10/14 02:41:09;;;;;;;35.67;11.13;;;11.10;99.90;;;;;;5031201;28;20045;-71
2022/10/14 02:43:34;;;;;;;46.00;11.30;;;11.00;99.90;;;;;;5030737;28;20076;-72
2022/10/14 02:46:03;;;;;;;31.30;10.63;;;11.00;99.90;;;;;;5031199;28;20108;-72
2022/10/14 02:48:28;;;;;;;54.72;11.05;;;11.00;99.90;;;;;;5030774;28;20076;-72
2022/10/14 02:50:54;;;;;;;43.67;11.18;;;11.10;99.90;;;;;;5031274;28;20314;-72
2022/10/14 02:53:20;;;;;;;40.50;12.27;;;11.00;99.90;;;;;;5013321;28;20038;-73
2022/10/14 02:55:45;;;;;;;51.65;12.32;;;11.00;99.90;;;;;;5031111;28;20135;-72
2022/10/14 02:58:11;;;;;;;72.18;13.07;;;11.00;99.90;;;;;;5031010;28;20125;-73
2022/10/14 03:00:36;;;;;;;48.50;11.05;;;11.00;99.90;;;;;;5033997;28;20053;-73
2022/10/14 03:03:02;;;;;;;71.22;12.77;;;11.00;99.90;;;;;;5034989;28;20060;-73
2022/10/14 03:05:28;;;;;;;68.90;12.68;;;10.90;99.90;;;;;;5034961;28;20049;-73
2022/10/14 03:07:54;;;;;;;57.22;12.10;;;10.90;99.90;;;;;;5034440;28;20045;-73
2022/10/14 03:10:20;;;;;;;54.53;13.48;;;10.90;99.90;;;;;;5034314;28;20057;-72
2022/10/14 03:12:45;;;;;;;67.60;13.20;;;10.80;99.90;;;;;;5034272;28;20043;-72
2022/10/14 03:15:11;;;;;;;37.30;9.18;;;10.90;99.90;;;;;;5019732;28;20382;-72
2022/10/14 03:17:37;;;;;;;50.72;10.23;;;10.80;99.90;;;;;;5015042;28;20061;-71
2022/10/14 03:20:04;;;;;;;32.33;9.48;;;10.70;99.90;;;;;;5014308;28;20470;-72
2022/10/14 03:22:30;;;;;;;36.90;9.43;;;10.60;99.90;;;;;;5014812;28;20048;-71
2022/10/14 03:24:56;;;;;;;49.00;12.45;;;10.60;99.90;;;;;;4999369;28;20038;-72
2022/10/14 03:27:22;;;;;;;44.45;10.27;;;10.60;99.90;;;;;;5034501;28;20041;-71
2022/10/14 03:29:47;;;;;;;44.55;9.68;;;10.60;99.90;;;;;;5016525;28;20428;-72
2022/10/14 03:32:13;;;;;;;49.72;10.48;;;10.60;99.90;;;;;;5015574;28;20046;-72
2022/10/14 03:34:38;;;;;;;57.50;11.93;;;10.60;99.90;;;;;;5014488;28;20122;-72
2022/10/14 03:37:04;;;;;;;54.60;11.35;;;10.50;99.90;;;;;;5014394;28;20034;-72
2022/10/14 03:39:30;;;;;;;41.35;10.50;;;10.60;99.90;;;;;;4997105;28;20054;-72
2022/10/14 03:41:56;;;;;;;47.25;9.30;;;10.60;99.90;;;;;;5014430;28;20045;-72
2022/10/14 03:44:22;;;;;;;57.65;11.80;;;10.60;99.90;;;;;;5013812;28;20125;-72
2022/10/14 03:46:47;;;;;;;58.55;11.32;;;10.60;99.90;;;;;;5013207;28;20058;-72
2022/10/14 03:49:13;;;;;;;76.60;11.55;;;10.60;99.90;;;;;;5013981;28;20454;-73
2022/10/14 03:51:39;;;;;;;63.53;12.27;;;10.60;99.90;;;;;;5014269;28;20045;-72
2022/10/14 03:54:04;;;;;;;68.93;12.02;;;10.60;99.90;;;;;;5014168;28;20390;-72
2022/10/14 03:56:30;;;;;;;61.63;12.70;;;10.70;99.90;;;;;;4996053;28;20045;-72
2022/10/14 03:58:56;;;;;;;60.25;14.27;;;10.70;99.90;;;;;;5013851;28;20041;-73
2022/10/14 04:01:21;;;;;;;72.70;14.85;;;10.80;99.90;;;;;;5013977;28;20045;-74
2022/10/14 04:03:49;;;;;;;51.45;12.57;;;10.80;99.90;;;;;;5013808;28;20042;-73
2022/10/14 04:06:15;;;;;;;46.25;13.45;;;10.80;99.90;;;;;;5013909;28;20049;-73
2022/10/14 04:08:41;;;;;;;38.47;15.18;;;10.80;99.90;;;;;;5013957;28;20084;-73
2022/10/14 04:11:07;;;;;;;39.20;14.50;;;10.80;99.90;;;;;;4994993;28;20497;-73
2022/10/14 04:13:33;;;;;;;40.97;15.05;;;10.90;99.90;;;;;;4996068;28;20042;-73
2022/10/14 04:16:06;;;;;;;35.13;13.95;;;10.90;99.90;;;;;;5013408;28;20108;-72
2022/10/14 04:18:33;;;;;;;36.20;14.57;;;10.90;99.90;;;;;;5013840;28;20053;-73
2022/10/14 04:21:09;;;;;;;37.10;14.35;;;10.90;99.90;;;;;;5013231;28;20486;-72
2022/10/14 04:23:35;;;;;;;30.15;13.43;;;11.00;99.90;;;;;;5013789;28;20080;-72
2022/10/14 04:26:05;;;;;;;31.42;12.95;;;11.00;99.90;;;;;;5024637;28;20045;-72
2022/10/14 04:28:32;;;;;;;30.48;13.98;;;11.00;99.90;;;;;;5033473;28;20080;-72
2022/10/14 04:30:57;;;;;;;32.75;14.82;;;11.00;99.90;;;;;;5015440;28;20053;-73
2022/10/14 04:33:23;;;;;;;30.65;13.60;;;11.00;99.90;;;;;;5022999;28;20050;-73
2022/10/14 04:35:49;;;;;;;30.55;13.50;;;11.00;99.90;;;;;;4996284;28;20050;-73
2022/10/14 04:38:15;;;;;;;32.35;14.15;;;11.00;99.90;;;;;;5013402;28;20045;-72
2022/10/14 04:40:43;;;;;;;32.40;13.48;;;11.10;99.90;;;;;;5013439;28;20123;-73
2022/10/14 04:43:09;;;;;;;30.67;13.57;;;11.00;99.90;;;;;;5013017;28;20056;-72
2022/10/14 04:45:35;;;;;;;31.38;13.73;;;11.10;99.90;;;;;;5013125;28;20380;-72
2022/10/14 04:48:00;;;;;;;29.35;13.60;;;11.10;99.90;;;;;;5013352;28;20050;-72
2022/10/14 04:50:26;;;;;;;30.33;14.10;;;11.10;99.90;;;;;;5013390;28;20050;-71
2022/10/14 04:52:52;;;;;;;31.98;13.60;;;11.10;99.90;;;;;;4995496;28;20045;-72
2022/10/14 04:55:18;;;;;;;26.85;12.85;;;11.20;99.90;;;;;;4995375;28;20045;-72
2022/10/14 04:57:43;;;;;;;27.98;13.07;;;11.20;99.90;;;;;;5013135;28;20124;-72
2022/10/14 05:00:12;;;;;;;30.35;12.68;;;11.20;99.90;;;;;;5012865;28;20046;-72
2022/10/14 05:02:38;;;;;;;26.50;13.65;;;11.20;99.90;;;;;;4995418;28;20581;-72
2022/10/14 05:05:05;;;;;;;28.40;14.18;;;11.30;99.90;;;;;;5012789;28;20096;-72
2022/10/14 05:07:31;;;;;;;28.50;13.18;;;11.30;99.90;;;;;;5012661;28;20116;-72
2022/10/14 05:09:56;;;;;;;25.98;12.77;;;11.30;99.90;;;;;;5012291;28;20033;-72
2022/10/14 05:12:22;;;;;;;29.25;14.82;;;11.30;99.90;;;;;;5012629;28;20081;-72
2022/10/14 05:14:48;;;;;;;21.42;11.52;;;11.30;99.90;;;;;;5012074;28;20064;-73
2022/10/14 05:17:14;;;;;;;20.70;10.70;;;11.30;99.90;;;;;;5012700;28;20058;-72
2022/10/14 05:19:39;;;;;;;18.95;10.32;;;11.30;99.90;;;;;;5012552;28;20038;-72
2022/10/14 05:22:05;;;;;;;20.33;10.57;;;11.30;99.90;;;;;;4994894;28;20371;-72
2022/10/14 05:24:31;;;;;;;20.25;10.63;;;11.30;99.90;;;;;;5012181;28;20471;-73
2022/10/14 05:26:56;;;;;;;17.58;9.30;;;11.30;99.90;;;;;;5012466;28;20122;-73
2022/10/14 05:29:22;;;;;;;15.02;8.60;;;11.30;99.90;;;;;;4994369;28;20042;-72
2022/10/14 05:31:47;;;;;;;18.52;9.55;;;11.20;99.90;;;;;;5012613;28;20099;-72
2022/10/14 05:34:13;;;;;;;16.55;9.82;;;11.20;99.90;;;;;;5011642;28;20091;-72
2022/10/14 05:36:39;;;;;;;17.10;9.27;;;11.30;99.90;;;;;;5032038;28;20124;-72
2022/10/14 05:39:09;;;;;;;18.33;9.25;;;11.30;99.90;;;;;;5032230;28;20041;-73
2022/10/14 05:41:35;;;;;;;16.13;9.30;;;11.30;99.90;;;;;;5032099;28;20053;-72
2022/10/14 05:44:01;;;;;;;17.25;9.07;;;11.20;99.90;;;;;;5031779;28;20045;-73
2022/10/14 05:46:26;;;;;;;16.08;9.18;;;11.30;99.90;;;;;;5031926;28;20049;-72
2022/10/14 05:48:52;;;;;;;16.40;9.52;;;11.20;99.90;;;;;;5031686;28;20124;-72
2022/10/14 05:51:20;;;;;;;18.27;9.50;;;11.30;99.90;;;;;;5013887;28;20057;-72
2022/10/14 05:53:46;;;;;;;16.08;9.43;;;11.30;99.90;;;;;;5031478;28;20116;-72
2022/10/14 05:56:12;;;;;;;16.27;9.20;;;11.30;99.90;;;;;;5030795;28;20473;-72
2022/10/14 05:58:38;;;;;;;14.98;9.07;;;11.30;99.90;;;;;;5031347;28;20037;-72
2022/10/14 06:01:06;;;;;;;17.15;9.88;;;11.30;99.90;;;;;;5013900;28;20052;-72
2022/10/14 06:03:32;;;;;;;16.55;9.45;;;11.30;99.90;;;;;;5031502;28;20055;-72
2022/10/14 06:05:59;;;;;;;17.60;9.68;;;11.30;99.90;;;;;;5031618;28;20371;-72
2022/10/14 06:08:26;;;;;;;16.05;9.45;;;11.30;99.90;;;;;;5031266;28;20045;-72
2022/10/14 06:10:52;;;;;;;17.27;9.98;;;11.30;99.90;;;;;;5031874;28;20060;-73
2022/10/14 06:13:18;;;;;;;13.70;8.65;;;11.30;99.90;;;;;;5031005;28;20068;-68
2022/10/14 06:15:44;;;;;;;15.27;8.50;;;11.30;99.90;;;;;;5011366;28;20046;-64
2022/10/14 06:18:10;;;;;;;15.60;8.55;;;11.30;99.90;;;;;;5011723;28;20060;-64
2022/10/14 06:20:36;;;;;;;15.75;8.77;;;11.20;99.90;;;;;;5011340;28;20049;-64
2022/10/14 06:23:02;;;;;;;17.17;7.55;;;11.20;99.90;;;;;;5011636;28;20517;-64
2022/10/14 06:25:29;;;;;;;14.05;8.65;;;11.20;99.90;;;;;;5011391;28;20034;-64
2022/10/14 06:27:54;;;;;;;14.82;7.45;;;11.20;99.90;;;;;;5011216;28;20505;-64
2022/10/14 06:30:20;;;;;;;13.93;7.80;;;11.20;99.90;;;;;;5011322;28;20038;-64
2022/10/14 06:32:46;;;;;;;13.65;7.70;;;11.20;99.90;;;;;;5016607;28;20037;-64
2022/10/14 06:35:12;;;;;;;15.90;8.60;;;11.20;99.90;;;;;;5030234;28;20088;-64
2022/10/14 06:37:38;;;;;;;16.02;9.07;;;11.20;99.90;;;;;;5030978;28;20042;-64
2022/10/14 06:40:04;;;;;;;17.30;9.90;;;11.30;99.90;;;;;;5031094;28;20044;-64
2022/10/14 06:42:32;;;;;;;18.40;9.88;;;11.30;99.90;;;;;;5031083;28;20133;-64
2022/10/14 06:44:57;;;;;;;16.60;9.13;;;11.30;99.90;;;;;;5030114;28;20041;-64
2022/10/14 06:47:23;;;;;;;17.20;9.98;;;11.30;99.90;;;;;;5030842;28;20045;-64
2022/10/14 06:49:49;;;;;;;16.75;9.27;;;11.30;99.90;;;;;;5030843;28;20048;-64
2022/10/14 06:52:14;;;;;;;16.23;9.40;;;11.40;99.90;;;;;;5030557;28;20049;-64
2022/10/14 06:54:40;;;;;;;19.85;10.15;;;11.40;99.90;;;;;;5030764;28;20045;-64
2022/10/14 06:57:06;;;;;;;16.70;9.38;;;11.40;99.90;;;;;;5030707;28;20510;-64
2022/10/14 06:59:31;;;;;;;19.02;10.00;;;11.50;99.90;;;;;;5030815;28;20041;-64
2022/10/14 07:01:57;;;;;;;16.73;9.60;;;11.50;99.90;;;;;;5012870;28;20402;-64
2022/10/14 07:04:23;;;;;;;15.57;8.93;;;11.60;99.90;;;;;;5030806;28;20092;-64
2022/10/14 07:06:48;;;;;;;15.20;8.55;;;11.70;99.90;;;;;;5030583;28;20049;-64
2022/10/14 07:09:14;;;;;;;15.23;9.57;;;11.70;99.90;;;;;;5030695;28;20081;-64
2022/10/14 07:11:41;;;;;;;16.30;9.23;;;11.70;99.90;;;;;;5030706;28;20049;-64
2022/10/14 07:14:08;;;;;;;15.75;8.85;;;11.80;99.90;;;;;;5023751;28;20073;-64
2022/10/14 07:16:34;;;;;;;14.23;7.97;;;11.80;99.90;;;;;;5008548;28;20112;-64
2022/10/14 07:19:00;;;;;;;14.77;8.38;;;11.90;99.90;;;;;;5006580;28;20054;-65
2022/10/14 07:21:25;;;;;;;16.33;8.70;;;11.80;99.90;;;;;;4990161;28;20394;-65
2022/10/14 07:23:51;;;;;;;13.02;7.55;;;11.90;99.90;;;;;;5010662;28;20046;-65
2022/10/14 07:26:17;;;;;;;15.20;8.77;;;11.90;99.90;;;;;;5008895;28;20046;-64
2022/10/14 07:28:43;;;;;;;14.13;8.45;;;11.90;99.90;;;;;;5009447;28;20398;-64
2022/10/14 07:31:10;;;;;;;14.60;8.07;;;11.90;99.90;;;;;;5009559;28;20045;-64
2022/10/14 07:33:38;;;;;;;12.57;7.55;;;11.90;99.90;;;;;;5021810;28;20042;-66
2022/10/14 07:36:06;;;;;;;15.82;8.55;;;12.00;99.90;;;;;;5001961;28;20070;-65
2022/10/14 07:38:32;;;;;;;13.82;8.43;;;12.00;99.90;;;;;;5010321;28;20064;-65
2022/10/14 07:41:04;;;;;;;15.75;9.02;;;12.00;99.90;;;;;;5010076;28;20041;-65
2022/10/14 07:43:32;;;;;;;15.88;8.68;;;12.10;99.90;;;;;;5010259;28;20058;-65
2022/10/14 07:46:03;;;;;;;14.68;8.70;;;12.00;99.90;;;;;;5011237;28;20140;-65
2022/10/14 07:48:31;;;;;;;14.80;8.48;;;12.00;99.90;;;;;;5013076;28;20057;-64
2022/10/14 07:50:57;;;;;;;15.63;8.73;;;12.10;99.90;;;;;;5013836;28;20041;-65
2022/10/14 07:53:24;;;;;;;17.13;9.80;;;12.10;99.90;;;;;;5014169;28;20407;-65
2022/10/14 07:55:52;;;;;;;15.18;8.23;;;12.10;99.90;;;;;;5013388;28;20060;-65
2022/10/14 07:58:23;;;;;;;18.38;8.52;;;12.10;99.90;;;;;;5013489;28;20132;-65
2022/10/14 08:00:49;;;;;;;14.25;7.80;;;12.10;99.90;;;;;;5013831;28;20054;-65
2022/10/14 08:03:17;;;;;;;14.23;8.23;;;12.10;99.90;;;;;;5013552;28;20077;-65
2022/10/14 08:05:43;;;;;;;14.65;7.80;;;12.10;99.90;;;;;;5013462;28;20144;-65
2022/10/14 08:08:10;;;;;;;12.57;8.10;;;12.10;99.90;;;;;;5013499;28;20477;-64
2022/10/14 08:10:36;;;;;;;14.57;8.63;;;12.00;99.90;;;;;;5012995;28;20442;-64
2022/10/14 08:13:03;;;;;;;15.48;8.45;;;12.10;99.90;;;;;;4995464;28;20478;-64
2022/10/14 08:15:33;;;;;;;18.38;9.55;;;12.10;99.90;;;;;;5013412;28;20053;-64
2022/10/14 08:17:59;;;;;;;17.58;9.48;;;12.10;99.90;;;;;;5012733;28;20428;-65
2022/10/14 08:20:25;;;;;;;18.77;9.15;;;12.10;99.90;;;;;;5013256;28;20037;-64
2022/10/14 08:22:50;;;;;;;17.40;9.55;;;12.10;99.90;;;;;;4979310;28;20104;-64
2022/10/14 08:25:16;;;;;;;16.27;8.75;;;12.20;99.90;;;;;;5012742;28;20107;-63
2022/10/14 08:27:42;;;;;;;17.33;10.07;;;12.20;99.90;;;;;;4995883;28;20061;-64
2022/10/14 08:30:09;;;;;;;17.95;9.57;;;12.20;99.90;;;;;;5012586;28;20471;-63
2022/10/14 08:32:35;;;;;;;17.75;9.52;;;12.30;99.90;;;;;;5016569;28;20044;-64
2022/10/14 08:35:01;;;;;;;16.30;9.18;;;12.30;99.90;;;;;;5032884;28;20042;-63
2022/10/14 08:37:26;;;;;;;17.10;10.07;;;12.30;99.90;;;;;;5033080;28;20056;-64
2022/10/14 08:39:52;;;;;;;19.85;10.15;;;12.40;99.90;;;;;;5032672;28;20045;-63
2022/10/14 08:42:38;;;;;;;19.80;10.15;;;12.40;99.90;;;;;;5032702;28;20096;-64
2022/10/14 08:45:14;;;;;;;18.27;9.68;;;12.50;99.90;;;;;;5032389;28;20053;-63
2022/10/14 08:47:44;;;;;;;18.65;8.95;;;12.50;99.90;;;;;;5032384;28;20049;-63
2022/10/14 08:50:34;;;;;;;22.27;10.93;;;12.50;99.90;;;;;;5032268;28;20052;-64
2022/10/14 08:53:12;;;;;;;23.30;11.60;;;12.50;99.90;;;;;;5032505;28;20045;-64
2022/10/14 08:55:48;;;;;;;24.58;11.98;;;12.50;99.90;;;;;;5000343;28;20056;-64
2022/10/14 08:58:38;;;;;;;22.52;11.50;;;12.50;99.90;;;;;;5012310;28;20050;-63
2022/10/14 09:01:13;;;;;;;21.15;11.75;;;12.50;99.90;;;;;;5012677;28;20054;-64
2022/10/14 09:03:40;;;;;;;22.45;11.70;;;12.50;99.90;;;;;;5011967;28;20132;-63
2022/10/14 09:06:30;;;;;;;23.48;12.75;;;12.50;99.90;;;;;;4994964;28;20053;-65
2022/10/14 09:09:03;;;;;;;23.50;12.30;;;12.60;99.90;;;;;;4974463;28;20149;-65
2022/10/14 09:11:36;;;;;;;24.40;11.68;;;12.60;99.90;;;;;;5002204;28;20505;-65
2022/10/14 09:14:04;;;;;;;23.13;10.77;;;12.60;99.90;;;;;;5011679;28;20128;-64
2022/10/14 09:16:34;;;;;;;20.55;10.38;;;12.70;99.90;;;;;;5011909;28;20061;-65
2022/10/14 09:19:33;;;;;;;19.95;11.27;;;12.70;99.90;;;;;;5012263;28;20050;-65
2022/10/14 09:22:01;;;;;;;21.33;12.02;;;12.70;99.90;;;;;;4994703;28;20100;-65
2022/10/14 09:24:34;;;;;;;24.02;12.52;;;12.70;99.90;;;;;;5012155;28;20144;-65
2022/10/14 09:27:06;;;;;;;21.83;11.38;;;12.80;99.90;;;;;;5011214;28;20173;-64
2022/10/14 09:30:03;;;;;;;22.55;11.88;;;12.70;99.90;;;;;;5011947;28;20042;-64
2022/10/14 09:32:38;;;;;;;24.67;11.75;;;12.80;99.90;;;;;;5014131;28;20401;-64
2022/10/14 09:35:31;;;;;;;22.30;12.13;;;12.80;99.90;;;;;;5031291;28;20064;-65
2022/10/14 09:37:57;;;;;;;21.52;11.75;;;12.80;99.90;;;;;;5013764;28;20755;-64
2022/10/14 09:40:49;;;;;;;22.10;11.52;;;12.80;99.90;;;;;;5030141;28;20076;-65
2022/10/14 09:43:20;;;;;;;23.70;11.82;;;12.80;99.90;;;;;;5010834;28;20495;-64
2022/10/14 09:46:09;;;;;;;24.88;11.45;;;12.80;99.90;;;;;;5011563;28;20103;-64
2022/10/14 09:48:51;;;;;;;24.35;12.40;;;12.80;99.90;;;;;;5011566;28;20050;-64
2022/10/14 09:51:20;;;;;;;23.63;11.85;;;12.90;99.90;;;;;;5007252;28;20054;-64
2022/10/14 09:53:57;;;;;;;25.33;12.35;;;12.90;99.90;;;;;;5007390;28;20045;-67
2022/10/14 09:56:41;;;;;;;21.65;10.68;;;12.80;99.90;;;;;;5014747;28;20050;-66
2022/10/14 09:59:20;;;;;;;21.90;11.68;;;12.80;99.90;;;;;;5002272;28;20046;-65
2022/10/14 10:01:52;;;;;;;22.38;11.55;;;12.90;99.90;;;;;;4992646;28;20050;-67
2022/10/14 10:04:32;;;;;;;23.52;12.25;;;12.80;99.90;;;;;;5010912;28;20061;-73
2022/10/14 10:07:00;;;;;;;22.35;12.02;;;12.80;99.90;;;;;;5026733;28;20108;-74
2022/10/14 10:09:26;;;;;;;24.20;12.57;;;12.80;99.90;;;;;;5009586;28;20042;-75
2022/10/14 10:11:52;;;;;;;19.75;11.63;;;12.80;99.90;;;;;;5025817;28;20302;-75
2022/10/14 10:14:24;;;;;;;22.85;11.75;;;12.80;99.90;;;;;;5011069;28;20124;-75
2022/10/14 10:17:17;;;;;;;22.25;12.13;;;12.90;99.90;;;;;;5011429;28;20061;-74
2022/10/14 10:19:46;;;;;;;25.25;11.95;;;12.90;99.90;;;;;;5011050;28;20045;-75
2022/10/14 10:22:15;;;;;;;19.85;11.18;;;12.90;99.90;;;;;;5011329;28;20056;-75
2022/10/14 10:24:41;;;;;;;23.75;11.82;;;12.90;99.90;;;;;;5010923;28;20557;-74
2022/10/14 10:27:39;;;;;;;24.83;12.77;;;12.90;99.90;;;;;;5010759;28;20049;-74
2022/10/14 10:30:16;;;;;;;20.65;11.52;;;12.90;99.90;;;;;;4992893;28;20061;-75
2022/10/14 10:32:53;;;;;;;23.00;11.27;;;12.90;99.90;;;;;;5016008;28;20045;-75
2022/10/14 10:35:36;;;;;;;20.17;10.90;;;12.90;99.90;;;;;;5013007;28;20054;-75
2022/10/14 10:38:19;;;;;;;21.65;11.73;;;12.90;99.90;;;;;;5026319;28;20168;-75
2022/10/14 10:41:13;;;;;;;23.75;12.15;;;12.90;99.90;;;;;;4992717;28;20057;-77
2022/10/14 10:44:18;;;;;;;22.02;10.60;;;12.90;99.90;;;;;;5017061;28;20049;-71
2022/10/14 10:47:05;;;;;;;19.63;10.38;;;13.00;99.90;;;;;;5026032;28;20478;-73
2022/10/14 10:49:43;;;;;;;;;;;12.90;99.90;;;;;;5013835;28;20438;-73
2022/10/14 10:52:22;;;;;;;21.83;11.00;;;13.00;99.90;;;;;;5021299;28;20476;-72
2022/10/14 10:55:03;;;;;;;22.23;10.90;;;13.00;99.90;;;;;;5018635;28;20066;-73
2022/10/14 10:57:34;;;;;;;18.23;10.55;;;13.00;99.90;;;;;;5009974;28;20133;-73
2022/10/14 11:00:02;;;;;;;23.15;11.68;;;13.00;99.90;;;;;;5010013;28;20050;-73
2022/10/14 11:02:54;;;;;;;21.83;11.63;;;13.00;99.90;;;;;;5010986;28;20104;-72
2022/10/14 11:05:34;;;;;;;23.10;12.05;;;13.00;99.90;;;;;;5010909;28;20057;-72
2022/10/14 11:14:07;;;;;;;26.30;12.63;;;13.00;99.90;;;;;;5012050;28;20529;-75
2022/10/14 11:16:43;;;;;;;27.02;14.05;;;13.00;99.90;;;;;;5011798;28;20049;-77
2022/10/14 11:19:14;;;;;;;27.15;14.13;;;13.10;99.90;;;;;;5017876;28;20534;-76
2022/10/14 11:21:57;;;;;;;29.50;13.23;;;13.10;99.90;;;;;;5014102;28;20064;-76
2022/10/14 11:24:59;;;;;;;32.13;14.55;;;13.10;99.90;;;;;;4996893;28;20153;-76
2022/10/14 11:27:42;;;;;;;30.17;14.88;;;13.20;99.90;;;;;;4976854;28;20406;-76
2022/10/14 11:30:36;;;;;;;29.65;14.88;;;13.20;99.90;;;;;;4996692;28;20256;-76
2022/10/14 11:33:33;;;;;;;29.45;15.00;;;13.20;99.90;;;;;;5014467;28;20056;-76
2022/10/14 11:36:11;;;;;;;29.33;14.30;;;13.30;99.90;;;;;;5013988;28;20046;-76
2022/10/14 11:38:43;;;;;;;28.48;14.20;;;13.30;99.90;;;;;;5014330;28;20046;-76
2022/10/14 11:41:17;;;;;;;33.65;16.23;;;13.40;99.90;;;;;;5014348;28;20057;-76
2022/10/14 11:44:16;;;;;;;31.17;16.33;;;13.40;99.90;;;;;;5013645;28;20046;-76
2022/10/14 11:46:48;;;;;;;29.77;15.32;;;13.40;99.90;;;;;;5014371;28;20046;-76
2022/10/14 11:49:30;;;;;;;28.60;14.05;;;13.50;99.90;;;;;;5013662;28;20161;-76
2022/10/14 11:52:18;;;;;;;33.78;15.60;;;13.50;99.90;;;;;;5014065;28;20050;-76
2022/10/14 11:54:50;;;;;;;31.85;15.95;;;13.50;99.90;;;;;;5013829;28;20053;-76
2022/10/14 11:57:44;;;;;;;32.67;16.42;;;13.60;99.90;;;;;;5013209;28;20144;-76
2022/10/14 12:00:17;;;;;;;28.45;15.43;;;13.60;99.90;;;;;;5013434;28;20053;-73
2022/10/14 12:02:46;;;;;;;32.08;16.73;;;13.70;99.90;;;;;;5013687;28;20054;-73
2022/10/14 12:05:24;;;;;;;34.20;15.68;;;13.70;99.90;;;;;;5013345;28;20045;-72
2022/10/14 12:08:06;;;;;;;34.88;16.50;;;13.70;99.90;;;;;;5011993;28;20061;-77
2022/10/14 12:10:37;;;;;;;31.90;16.52;;;13.80;99.90;;;;;;5010755;28;20077;-75
2022/10/14 12:13:07;;;;;;;29.90;15.70;;;13.90;99.90;;;;;;5011958;28;20084;-75
2022/10/14 12:15:36;;;;;;;32.33;15.88;;;13.90;99.90;;;;;;5010767;28;20100;-75
2022/10/14 12:18:04;;;;;;;31.58;16.42;;;14.00;99.90;;;;;;5011600;28;20054;-77
2022/10/14 12:20:48;;;;;;;31.50;17.13;;;14.00;99.90;;;;;;5011636;28;20517;-76
2022/10/14 12:23:32;;;;;;;28.98;16.25;;;14.00;99.90;;;;;;5012115;28;20054;-72
2022/10/14 12:26:24;;;;;;;29.27;15.75;;;14.00;99.90;;;;;;5006456;28;20784;-76
2022/10/14 12:28:51;;;;;;;28.77;16.30;;;14.00;99.90;;;;;;4969692;28;20108;-76
2022/10/14 12:31:39;;;;;;;26.95;15.20;;;13.70;99.90;;;;;;5009684;28;20050;-76
2022/10/14 12:34:13;;;;;;;27.17;16.10;;;14.00;99.90;;;;;;4994141;28;20066;-76
2022/10/14 12:36:47;;;;;;;28.73;15.85;;;14.00;99.90;;;;;;5010751;28;20042;-77
2022/10/14 12:39:15;;;;;;;27.75;15.38;;;14.00;99.90;;;;;;5012190;28;20050;-78
2022/10/14 12:41:54;;;;;;;30.45;16.33;;;14.00;99.90;;;;;;5011665;28;20085;-76
2022/10/14 12:44:24;;;;;;;24.38;15.18;;;14.00;99.90;;;;;;5011346;28;20111;-76
2022/10/14 12:46:52;;;;;;;25.88;15.30;;;14.00;99.90;;;;;;5012025;28;20045;-77
2022/10/14 12:49:29;;;;;;;25.98;15.52;;;14.10;99.90;;;;;;4993922;28;20071;-76
2022/10/14 12:52:03;;;;;;;26.30;14.93;;;14.10;99.90;;;;;;4991140;28;20050;-77
2022/10/14 12:54:30;;;;;;;25.77;15.20;;;14.10;99.90;;;;;;4992371;28;20107;-73
2022/10/14 12:57:05;;;;;;;24.50;14.00;;;14.20;99.90;;;;;;4991778;28;20054;-74
2022/10/14 12:59:37;;;;;;;25.90;15.07;;;14.20;99.90;;;;;;4991871;28;20099;-73